Time;durP1;ratioP1;P1;durP2;ratioP2;P2;SDS_P1;SDS_P2;PMS_P1;PMS_P2;Temp;Humidity;BMP_temperature;BMP_pressure;BME280_temperature;BME280_humidity;BME280_pressure;Samples;Min_cycle;Max_cycle;Signal;HPM_P1;HPM_P2
2022/03/19 00:01:07;;;;;;;37.13;20.75;;;;;;;6.60;53.02;102134.78;4482561;32;35811;-82
2022/03/19 00:03:36;;;;;;;37.35;21.08;;;;;;;6.68;52.92;102125.13;4471588;32;34621;-83
2022/03/19 00:06:07;;;;;;;42.35;21.25;;;;;;;6.70;52.80;102120.41;4471401;32;33171;-83
2022/03/19 00:08:37;;;;;;;39.05;21.52;;;;;;;6.61;53.04;102130.22;4471282;32;33976;-82
2022/03/19 00:11:05;;;;;;;37.85;21.73;;;;;;;6.72;52.78;102124.75;4484484;32;35231;-83
2022/03/19 00:13:38;;;;;;;42.05;22.70;;;;;;;6.63;52.99;102120.03;4471028;32;34677;-82
2022/03/19 00:16:06;;;;;;;39.72;21.45;;;;;;;6.75;52.74;102124.50;4458169;32;31870;-83
2022/03/19 00:18:34;;;;;;;41.88;22.50;;;;;;;6.72;52.89;102121.16;4470834;32;34694;-83
2022/03/19 00:21:05;;;;;;;38.58;22.85;;;;;;;6.74;52.74;102122.78;4470905;32;34564;-82
2022/03/19 00:23:36;;;;;;;37.85;20.60;;;;;;;6.74;52.78;102120.03;4471254;32;33890;-82
2022/03/19 00:26:04;;;;;;;42.28;22.40;;;;;;;6.82;52.61;102120.28;4470984;32;34425;-84
2022/03/19 00:28:31;;;;;;;39.50;21.70;;;;;;;6.76;52.88;102114.47;4471050;32;34004;-82
2022/03/19 00:30:59;;;;;;;42.20;23.02;;;;;;;6.89;52.65;102116.06;4483992;32;34417;-82
2022/03/19 00:33:30;;;;;;;41.15;23.25;;;;;;;6.84;52.73;102110.12;4471493;32;33916;-82
2022/03/19 00:35:57;;;;;;;40.40;23.38;;;;;;;6.77;52.97;102111.59;4458053;32;31908;-81
2022/03/19 00:38:26;;;;;;;40.92;22.77;;;;;;;6.91;52.62;102105.88;4471294;32;32225;-80
2022/03/19 00:40:55;;;;;;;39.95;22.62;;;;;;;6.84;52.65;102107.38;4470734;32;34689;-82
2022/03/19 00:43:26;;;;;;;39.28;22.10;;;;;;;6.80;52.74;102107.75;4470806;32;33878;-81
2022/03/19 00:45:54;;;;;;;43.05;23.92;;;;;;;6.87;52.59;102101.69;4470857;32;31876;-78
2022/03/19 00:48:22;;;;;;;38.22;23.50;;;;;;;7.00;52.27;102100.66;4483017;32;32335;-80
2022/03/19 00:50:52;;;;;;;39.70;22.67;;;;;;;6.99;52.27;102105.25;4457852;32;33139;-80
2022/03/19 00:53:22;;;;;;;38.47;21.83;;;;;;;6.97;52.26;102099.06;4483709;32;34055;-80
2022/03/19 00:55:55;;;;;;;40.88;22.95;;;;;;;6.96;52.38;102100.06;4483673;32;34250;-80
2022/03/19 00:58:23;;;;;;;40.30;21.67;;;;;;;7.00;52.28;102090.63;4483359;32;33402;-80
2022/03/19 01:00:55;;;;;;;39.35;22.33;;;;;;;6.98;52.39;102091.75;4454766;31;33988;-80
2022/03/19 01:03:31;;;;;;;38.85;21.92;;;;;;;7.06;52.30;102091.97;4467797;32;33320;-81
2022/03/19 01:05:58;;;;;;;39.33;20.65;;;;;;;6.99;52.49;102101.66;4462678;32;33347;-79
2022/03/19 01:08:26;;;;;;;38.75;21.23;;;;;;;6.94;52.66;102092.00;4462470;32;33648;-79
2022/03/19 01:10:54;;;;;;;37.83;21.25;;;;;;;7.05;52.58;102087.50;4450654;31;32705;-80
2022/03/19 01:13:22;;;;;;;40.10;22.13;;;;;;;7.01;52.67;102086.03;4460968;32;34561;-79
2022/03/19 01:15:55;;;;;;;40.60;22.00;;;;;;;6.90;53.02;102085.03;4463332;31;34204;-80
2022/03/19 01:18:25;;;;;;;41.55;23.42;;;;;;;6.93;53.00;102086.66;4462334;32;32300;-80
2022/03/19 01:20:55;;;;;;;39.53;21.80;;;;;;;6.90;52.95;102078.72;4461089;32;34593;-79
2022/03/19 01:23:23;;;;;;;37.70;22.27;;;;;;;6.97;52.85;102084.53;4463403;32;34007;-80
2022/03/19 01:25:51;;;;;;;39.22;22.00;;;;;;;6.99;52.70;102088.00;4462642;32;33038;-81
2022/03/19 01:28:18;;;;;;;37.28;22.20;;;;;;;6.93;52.92;102079.34;4470546;32;34425;-80
2022/03/19 01:30:48;;;;;;;38.28;22.02;;;;;;;7.05;52.57;102076.59;4470420;32;35291;-80
2022/03/19 01:33:16;;;;;;;39.90;22.67;;;;;;;6.98;52.70;102075.34;4472560;32;33668;-80
2022/03/19 01:35:44;;;;;;;39.85;21.67;;;;;;;7.08;52.62;102074.47;4472519;32;31741;-81
2022/03/19 01:38:13;;;;;;;37.03;21.27;;;;;;;6.95;52.78;102065.56;4473114;32;33690;-80
2022/03/19 01:40:41;;;;;;;36.47;21.08;;;;;;;7.07;52.41;102064.53;4472734;32;34318;-80
2022/03/19 01:43:11;;;;;;;38.95;21.67;;;;;;;7.08;52.28;102054.50;4472542;32;33917;-80
2022/03/19 01:45:38;;;;;;;38.75;21.17;;;;;;;7.17;51.97;102048.22;4486688;32;32239;-81
2022/03/19 01:48:09;;;;;;;39.78;20.92;;;;;;;7.02;52.45;102055.88;4472312;32;33678;-79
2022/03/19 01:50:38;;;;;;;41.22;22.87;;;;;;;7.09;52.26;102056.22;4486423;32;34383;-81
2022/03/19 01:53:06;;;;;;;40.10;22.15;;;;;;;7.18;52.00;102049.94;4472234;32;33960;-79
2022/03/19 01:55:33;;;;;;;37.47;22.73;;;;;;;7.08;51.95;102055.34;4472262;32;33292;-80
2022/03/19 01:58:02;;;;;;;39.45;21.73;;;;;;;6.96;52.22;102050.91;4472164;32;34522;-80
2022/03/19 02:00:30;;;;;;;39.67;22.05;;;;;;;6.87;52.39;102049.81;4472421;32;34374;-80
2022/03/19 02:02:58;;;;;;;39.90;22.33;;;;;;;6.96;52.31;102044.59;4459435;32;32906;-80
2022/03/19 02:05:26;;;;;;;40.25;21.98;;;;;;;6.95;52.27;102046.44;4459417;32;31948;-80
2022/03/19 02:07:56;;;;;;;38.33;21.45;;;;;;;6.77;52.54;102046.09;4485463;32;33643;-81
2022/03/19 02:10:24;;;;;;;37.50;22.62;;;;;;;6.87;52.17;102041.62;4459899;32;32812;-80
2022/03/19 02:12:53;;;;;;;38.53;21.33;;;;;;;6.80;52.28;102034.94;4472232;32;32475;-80
2022/03/19 02:15:23;;;;;;;40.28;22.55;;;;;;;6.77;52.22;102039.78;4485058;32;32532;-80
2022/03/19 02:17:51;;;;;;;35.90;21.23;;;;;;;6.74;52.12;102035.44;4472189;32;33550;-80
2022/03/19 02:20:19;;;;;;;34.17;21.92;;;;;;;6.65;52.25;102030.75;4485940;32;35083;-80
2022/03/19 02:25:35;;;;;;;40.00;20.92;;;;;;;6.64;52.14;102034.47;4442190;32;31139;-80
2022/03/19 02:28:04;;;;;;;34.95;20.95;;;;;;;6.47;52.26;102037.72;4459300;32;33378;-80
2022/03/19 02:30:37;;;;;;;35.53;19.33;;;;;;;6.48;52.21;102034.88;4472107;32;34568;-80
2022/03/19 02:33:05;;;;;;;31.70;19.73;;;;;;;6.47;52.08;102032.28;4472041;32;32562;-81
2022/03/19 02:35:33;;;;;;;39.13;21.02;;;;;;;6.32;52.45;102028.06;4459168;32;33416;-80
2022/03/19 02:38:03;;;;;;;34.85;20.95;;;;;;;6.35;52.40;102027.81;4471942;32;33424;-79
2022/03/19 02:40:31;;;;;;;36.17;21.23;;;;;;;6.21;52.75;102020.75;4472025;32;33351;-80
2022/03/19 02:42:59;;;;;;;35.97;20.80;;;;;;;6.11;52.79;102028.81;4471703;32;33826;-80
2022/03/19 02:45:27;;;;;;;39.40;20.98;;;;;;;6.15;52.58;102022.12;4472251;32;34089;-80
2022/03/19 02:47:58;;;;;;;39.00;20.70;;;;;;;6.11;52.48;102017.91;4472032;32;32148;-80
2022/03/19 02:50:34;;;;;;;40.08;21.40;;;;;;;6.04;52.48;102013.94;4472311;32;34220;-79
2022/03/19 02:53:11;;;;;;;34.40;20.30;;;;;;;6.09;52.50;102017.16;4472279;32;34699;-80
2022/03/19 02:55:40;;;;;;;35.88;20.80;;;;;;;6.02;52.51;102017.75;4472074;32;33232;-80
2022/03/19 02:58:09;;;;;;;35.47;21.10;;;;;;;5.82;53.01;102008.44;4472102;32;33647;-81
2022/03/19 03:00:38;;;;;;;41.00;21.35;;;;;;;5.94;52.78;102023.81;4471876;32;34135;-81
2022/03/19 03:03:06;;;;;;;36.42;20.50;;;;;;;5.77;53.07;102022.44;4484904;32;33776;-81
2022/03/19 03:05:35;;;;;;;36.58;19.95;;;;;;;5.78;53.08;102023.28;4472131;32;33194;-80
2022/03/19 03:08:04;;;;;;;34.25;20.27;;;;;;;5.72;53.21;102011.03;4471885;32;33742;-80
2022/03/19 03:10:32;;;;;;;40.28;22.37;;;;;;;5.75;53.34;102018.09;4472171;32;34593;-79
2022/03/19 03:13:01;;;;;;;37.55;20.33;;;;;;;5.79;53.15;102015.00;4471965;32;34638;-80
2022/03/19 03:15:32;;;;;;;38.15;20.58;;;;;;;5.67;53.46;102010.50;4471770;32;33523;-79
2022/03/19 03:18:01;;;;;;;39.00;22.13;;;;;;;5.77;53.36;102016.09;4471947;32;34447;-80
2022/03/19 03:20:33;;;;;;;40.78;20.50;;;;;;;5.76;53.32;102012.53;4471517;32;33080;-79
2022/03/19 03:23:00;;;;;;;38.25;21.60;;;;;;;5.78;53.40;102007.81;4484582;32;34084;-80
2022/03/19 03:25:28;;;;;;;35.38;21.52;;;;;;;5.81;53.42;102014.88;4458855;32;31670;-79
2022/03/19 03:27:58;;;;;;;40.63;21.40;;;;;;;5.80;53.36;102022.19;4471738;32;34025;-80
2022/03/19 03:30:26;;;;;;;38.50;21.65;;;;;;;5.76;53.35;102007.06;4471645;32;34222;-80
2022/03/19 03:32:54;;;;;;;36.47;21.05;;;;;;;5.66;53.55;102014.22;4471744;32;33841;-79
2022/03/19 03:35:25;;;;;;;43.80;22.35;;;;;;;5.51;54.10;102016.28;4471950;32;33498;-80
2022/03/19 03:37:54;;;;;;;39.60;20.73;;;;;;;5.79;53.52;102008.69;4471786;32;32755;-80
2022/03/19 03:40:22;;;;;;;37.33;22.17;;;;;;;5.50;54.20;102005.50;4484320;32;34338;-80
2022/03/19 03:42:55;;;;;;;37.40;21.08;;;;;;;5.62;53.94;102010.88;4471518;32;32248;-80
2022/03/19 03:45:23;;;;;;;38.03;21.58;;;;;;;5.57;54.17;101998.59;4471973;32;33509;-80
2022/03/19 03:47:50;;;;;;;39.13;21.35;;;;;;;5.65;53.88;102006.19;4458539;32;33285;-80
2022/03/19 03:50:20;;;;;;;44.00;23.60;;;;;;;5.63;54.09;102004.44;4471311;32;34070;-80
2022/03/19 03:52:51;;;;;;;35.97;21.73;;;;;;;5.59;54.21;102010.25;4484530;32;34973;-79
2022/03/19 03:55:19;;;;;;;38.35;21.87;;;;;;;5.61;54.03;102011.00;4470479;32;34037;-80
2022/03/19 03:57:49;;;;;;;41.70;22.08;;;;;;;5.59;54.11;102008.38;4471294;32;32190;-80
2022/03/19 04:00:20;;;;;;;37.00;21.00;;;;;;;5.55;54.28;102011.47;4484571;32;34543;-80
2022/03/19 04:02:50;;;;;;;39.88;22.08;;;;;;;5.62;54.18;102002.69;4471357;32;33715;-80
2022/03/19 04:05:23;;;;;;;39.00;22.83;;;;;;;5.64;54.15;102002.59;4484349;32;33230;-80
2022/03/19 04:07:51;;;;;;;39.63;21.55;;;;;;;5.61;54.22;102000.97;4471085;32;33619;-80
2022/03/19 04:10:19;;;;;;;39.00;21.40;;;;;;;5.59;54.37;102005.66;4471178;32;32888;-80
2022/03/19 04:12:48;;;;;;;41.55;21.67;;;;;;;5.67;54.27;102004.19;4471434;32;34106;-80
2022/03/19 04:15:18;;;;;;;40.80;21.77;;;;;;;5.62;54.42;101997.25;4471540;32;33329;-80
2022/03/19 04:17:53;;;;;;;37.03;21.70;;;;;;;5.72;54.22;101996.53;4472061;32;32331;-80
2022/03/19 04:20:22;;;;;;;40.10;21.50;;;;;;;5.74;54.38;101989.97;4471272;32;33726;-79
2022/03/19 04:22:52;;;;;;;39.75;21.12;;;;;;;5.68;54.44;101995.91;4471224;32;34126;-80
2022/03/19 04:25:22;;;;;;;39.78;21.92;;;;;;;5.73;54.25;101990.97;4458193;32;31857;-80
2022/03/19 04:27:52;;;;;;;40.58;22.08;;;;;;;5.65;54.35;101993.41;4484285;32;33896;-79
2022/03/19 04:30:21;;;;;;;41.65;22.50;;;;;;;5.70;54.13;101987.62;4470968;32;33100;-79
2022/03/19 04:32:54;;;;;;;45.15;24.02;;;;;;;5.73;54.17;101987.38;4471004;32;34045;-80
2022/03/19 04:38:16;;;;;;;45.05;24.67;;;;;;;5.74;54.53;101984.53;4484254;32;34340;-80
2022/03/19 04:40:45;;;;;;;45.90;25.92;;;;;;;5.70;54.61;101993.06;4470880;32;32966;-79
2022/03/19 04:43:13;;;;;;;45.35;24.33;;;;;;;5.76;54.49;101993.44;4470923;32;32473;-80
2022/03/19 04:45:42;;;;;;;42.28;24.12;;;;;;;5.79;54.39;101987.75;4470621;32;31758;-80
2022/03/19 04:48:13;;;;;;;44.50;24.25;;;;;;;5.77;54.50;101988.88;4470813;32;33675;-80
2022/03/19 04:50:43;;;;;;;52.33;25.27;;;;;;;5.72;54.81;101993.81;4470643;32;34416;-80
2022/03/19 04:53:11;;;;;;;44.42;24.50;;;;;;;5.76;55.02;102000.75;4483608;32;34007;-80
2022/03/19 04:55:41;;;;;;;46.20;25.37;;;;;;;5.88;54.57;101994.28;4470567;32;31785;-79
2022/03/19 04:58:11;;;;;;;45.63;24.27;;;;;;;5.79;54.78;102009.56;4470386;32;33275;-81
2022/03/19 05:00:41;;;;;;;50.12;25.55;;;;;;;5.63;55.16;102003.56;4470459;32;33998;-80
2022/03/19 05:03:13;;;;;;;47.60;26.20;;;;;;;5.66;55.36;102008.78;4470434;32;34089;-80
2022/03/19 05:05:41;;;;;;;43.72;24.73;;;;;;;5.82;55.00;102011.16;4471533;32;31686;-80
2022/03/19 05:08:12;;;;;;;46.80;25.48;;;;;;;5.74;55.40;102010.91;4472641;32;33903;-80
2022/03/19 05:13:28;;;;;;;44.38;24.75;;;;;;;5.91;54.95;102010.44;4474323;32;32331;-79
2022/03/19 05:15:56;;;;;;;43.05;25.67;;;;;;;5.87;54.89;102003.47;4471931;32;34319;-80
2022/03/19 05:18:23;;;;;;;49.22;27.17;;;;;;;5.88;55.09;102007.91;4485395;32;33789;-80
2022/03/19 05:20:51;;;;;;;52.55;25.92;;;;;;;5.98;54.90;102011.69;4472501;32;34294;-80
2022/03/19 05:23:19;;;;;;;58.97;28.45;;;;;;;6.06;54.72;102006.50;4472744;32;34839;-81
2022/03/19 05:25:49;;;;;;;50.70;27.52;;;;;;;6.06;54.81;102001.03;4472889;32;33489;-77
2022/03/19 05:28:17;;;;;;;45.12;26.40;;;;;;;5.95;55.31;102006.47;4485397;32;33638;-77
2022/03/19 05:31:00;;;;;;;49.60;27.25;;;;;;;6.00;55.11;102004.25;4473327;32;33444;-77
2022/03/19 05:36:14;;;;;;;49.83;27.20;;;;;;;6.23;54.64;102008.72;4474547;32;31911;-77
2022/03/19 05:38:42;;;;;;;50.72;28.55;;;;;;;6.17;54.94;102003.78;4472387;32;34352;-77
2022/03/19 05:41:10;;;;;;;50.95;27.67;;;;;;;6.25;54.87;102014.06;4471882;32;34092;-78
2022/03/19 05:43:39;;;;;;;51.58;26.52;;;;;;;6.30;54.80;102006.37;4484839;32;33981;-77
2022/03/19 05:46:07;;;;;;;48.35;28.35;;;;;;;6.37;54.61;102006.75;4459845;32;32907;-76
2022/03/19 05:48:37;;;;;;;49.60;27.37;;;;;;;6.30;54.97;102008.25;4484799;32;33650;-77
2022/03/19 05:51:07;;;;;;;49.47;28.70;;;;;;;6.48;54.65;102006.75;4485251;32;34521;-77
2022/03/19 05:53:36;;;;;;;48.65;28.58;;;;;;;6.50;54.78;102008.31;4485198;32;33829;-77
2022/03/19 05:56:04;;;;;;;48.87;27.62;;;;;;;6.47;55.13;102005.88;4472389;32;31836;-78
2022/03/19 05:58:32;;;;;;;49.60;27.83;;;;;;;6.55;54.82;102005.22;4485241;32;34496;-77
2022/03/19 06:01:00;;;;;;;50.75;28.60;;;;;;;6.73;54.50;102002.81;4472246;32;35223;-77
2022/03/19 06:03:30;;;;;;;54.92;29.48;;;;;;;6.79;54.50;101999.59;4472436;32;33675;-77
2022/03/19 06:06:01;;;;;;;50.63;28.85;;;;;;;6.80;54.43;102006.78;4485361;32;33103;-77
2022/03/19 06:08:32;;;;;;;59.22;31.15;;;;;;;6.74;54.72;102008.16;4486168;32;34577;-77
2022/03/19 06:10:59;;;;;;;52.20;31.83;;;;;;;6.79;54.90;102010.50;4485272;32;34085;-77
2022/03/19 06:13:29;;;;;;;58.47;31.65;;;;;;;6.93;54.55;102013.81;4484939;32;33845;-77
2022/03/19 06:15:57;;;;;;;58.35;31.40;;;;;;;6.89;54.77;102015.06;4501138;31;33520;-78
2022/03/19 06:18:28;;;;;;;58.63;32.03;;;;;;;6.90;54.69;102011.34;4487761;31;33986;-77
2022/03/19 06:20:58;;;;;;;55.95;31.02;;;;;;;7.03;54.47;102015.78;4474692;31;33932;-79
2022/03/19 06:23:26;;;;;;;57.90;30.95;;;;;;;7.25;53.74;102018.41;4463972;32;33960;-78
2022/03/19 06:25:59;;;;;;;57.97;31.48;;;;;;;7.14;53.83;102026.66;4486097;31;33453;-78
2022/03/19 06:28:26;;;;;;;49.85;27.83;;;;;;;7.26;53.48;102020.13;4474523;31;34709;-76
2022/03/19 06:30:59;;;;;;;54.40;29.77;;;;;;;7.15;52.74;102021.03;4473701;31;33070;-77
2022/03/19 06:33:29;;;;;;;52.67;27.30;;;;;;;7.20;52.29;102020.66;4474890;31;34331;-77
2022/03/19 06:38:51;;;;;;;57.72;30.35;;;;;;;7.25;51.47;102019.25;4463323;31;31875;-78
2022/03/19 06:41:23;;;;;;;57.65;29.15;;;;;;;7.37;51.30;102017.34;4474284;31;32529;-79
2022/03/19 06:43:54;;;;;;;53.78;28.48;;;;;;;7.30;52.59;102016.16;4474116;31;34800;-80
2022/03/19 06:46:25;;;;;;;53.85;28.40;;;;;;;7.52;51.57;102016.03;4472730;31;34074;-83
2022/03/19 06:48:59;;;;;;;53.60;29.40;;;;;;;7.53;50.63;102009.56;4485464;31;34610;-83
2022/03/19 06:51:26;;;;;;;49.35;29.33;;;;;;;7.65;50.29;102014.97;4472134;31;32966;-82
2022/03/19 06:53:59;;;;;;;53.95;30.23;;;;;;;7.50;50.33;102023.50;4472721;31;34792;-81
2022/03/19 06:56:27;;;;;;;50.05;28.85;;;;;;;7.59;50.18;102021.84;4473175;31;33075;-84
2022/03/19 06:58:56;;;;;;;51.80;29.65;;;;;;;7.57;49.73;102013.78;4472837;31;32621;-82
2022/03/19 07:01:25;;;;;;;54.60;29.37;;;;;;;7.59;49.43;102016.37;4473990;31;34044;-80
2022/03/19 07:03:53;;;;;;;53.90;27.70;;;;;;;7.64;49.14;102015.97;4461334;31;32141;-81
2022/03/19 07:06:23;;;;;;;68.45;37.03;;;;;;;7.75;49.13;102027.72;4474276;31;33469;-82
2022/03/19 07:09:11;;;;;;;47.10;24.20;;;;;;;7.62;48.39;102021.59;4476146;31;32137;-81
2022/03/19 07:11:44;;;;;;;43.13;22.23;;;;;;;8.01;46.43;102025.41;4461105;31;33029;-82
2022/03/19 07:14:20;;;;;;;41.17;22.42;;;;;;;7.97;45.50;102023.09;4474363;31;32503;-81
2022/03/19 07:16:54;;;;;;;32.00;19.08;;;;;;;7.99;44.10;102018.34;4487360;31;33445;-82
2022/03/19 07:19:22;;;;;;;35.65;20.45;;;;;;;8.07;43.08;102022.12;4487694;31;33625;-81
2022/03/19 07:21:51;;;;;;;36.85;19.25;;;;;;;8.03;42.96;102025.28;4461528;31;34169;-79
2022/03/19 07:24:19;;;;;;;39.83;19.92;;;;;;;8.30;42.33;102025.56;4474602;31;34322;-84
2022/03/19 07:26:48;;;;;;;34.97;20.08;;;;;;;8.34;42.09;102023.47;4461615;31;31945;-81
2022/03/19 07:29:18;;;;;;;36.08;19.25;;;;;;;8.41;41.47;102028.25;4459749;31;32173;-78
2022/03/19 07:31:51;;;;;;;35.58;19.75;;;;;;;8.61;42.61;102025.56;4475807;31;35314;-78
2022/03/19 07:34:19;;;;;;;44.75;23.70;;;;;;;8.84;41.85;102027.94;4474243;31;33815;-76
2022/03/19 07:36:52;;;;;;;41.92;23.27;;;;;;;9.04;41.00;102019.75;4474089;31;32292;-77
2022/03/19 07:39:24;;;;;;;43.42;24.20;;;;;;;9.03;40.64;102020.75;4501057;31;33774;-76
2022/03/19 07:41:55;;;;;;;41.70;23.60;;;;;;;9.03;40.33;102020.75;4472247;31;33997;-76
2022/03/19 07:44:27;;;;;;;39.90;20.42;;;;;;;9.18;40.44;102025.66;4473870;31;34850;-77
2022/03/19 07:46:55;;;;;;;35.80;19.75;;;;;;;9.18;39.70;102031.13;4459647;31;32778;-76
2022/03/19 07:49:23;;;;;;;34.92;21.20;;;;;;;9.45;39.44;102026.84;4472522;31;32242;-76
2022/03/19 07:51:55;;;;;;;43.65;21.67;;;;;;;9.12;39.03;102020.75;4472348;31;33128;-76
2022/03/19 07:54:27;;;;;;;35.38;21.00;;;;;;;9.39;39.48;102021.94;4486192;31;34035;-75
2022/03/19 07:56:55;;;;;;;41.13;21.83;;;;;;;8.91;39.96;102029.09;4472948;31;34303;-76
2022/03/19 07:59:23;;;;;;;37.13;22.65;;;;;;;9.15;39.68;102033.28;4472291;31;32366;-76
2022/03/19 08:01:54;;;;;;;38.40;21.77;;;;;;;9.10;39.84;102028.25;4460690;31;32871;-77
2022/03/19 08:04:26;;;;;;;39.60;21.95;;;;;;;9.15;40.07;102036.03;4474951;31;34179;-76
2022/03/19 08:06:56;;;;;;;39.10;21.45;;;;;;;9.34;40.28;102036.06;4474040;31;33239;-78
2022/03/19 08:09:27;;;;;;;43.45;22.65;;;;;;;9.21;39.78;102039.06;4475270;31;33870;-81
2022/03/19 08:12:02;;;;;;;39.80;22.92;;;;;;;8.98;40.21;102037.63;4474908;31;34276;-76
2022/03/19 08:14:34;;;;;;;40.08;21.50;;;;;;;8.32;41.55;102041.84;4474543;31;33805;-76
2022/03/19 08:17:05;;;;;;;41.80;23.65;;;;;;;8.33;41.82;102049.09;4464507;32;33932;-76
2022/03/19 08:19:38;;;;;;;37.97;21.15;;;;;;;8.51;41.07;102041.94;4456526;32;34337;-81
2022/03/19 08:22:28;;;;;;;38.65;21.02;;;;;;;8.98;40.63;102040.34;4453848;32;33074;-78
2022/03/19 08:24:58;;;;;;;43.28;21.42;;;;;;;8.88;40.94;102040.34;4483135;32;33511;-80
2022/03/19 08:27:28;;;;;;;42.60;22.17;;;;;;;9.09;40.68;102032.03;4471045;32;31759;-80
2022/03/19 08:29:56;;;;;;;34.70;20.58;;;;;;;9.22;40.26;102038.06;4471033;32;32148;-80
2022/03/19 08:32:24;;;;;;;34.85;19.45;;;;;;;9.24;39.94;102035.19;4470748;32;34158;-80
2022/03/19 08:34:52;;;;;;;32.78;19.75;;;;;;;9.28;39.64;102036.63;4470778;32;34130;-79
2022/03/19 08:37:23;;;;;;;32.78;20.20;;;;;;;9.56;38.76;102034.91;4470856;32;32320;-83
2022/03/19 08:42:39;;;;;;;32.65;18.87;;;;;;;10.09;38.43;102029.75;4485558;32;34024;-84
2022/03/19 08:45:07;;;;;;;33.78;19.90;;;;;;;9.88;38.25;102026.34;4472489;32;35231;-83
2022/03/19 08:47:37;;;;;;;31.40;19.05;;;;;;;10.16;38.21;102028.16;4485664;32;33588;-83
2022/03/19 08:50:07;;;;;;;31.77;19.02;;;;;;;10.39;38.16;102036.91;4472636;32;34644;-83
2022/03/19 08:52:40;;;;;;;35.97;19.42;;;;;;;10.44;37.87;102036.44;4472724;32;35335;-83
2022/03/19 08:55:09;;;;;;;35.60;21.10;;;;;;;10.60;37.14;102033.91;4472995;32;33988;-83
2022/03/19 08:57:37;;;;;;;41.15;21.33;;;;;;;10.77;37.26;102026.75;4459333;32;31941;-83
2022/03/19 09:00:07;;;;;;;34.55;19.37;;;;;;;10.78;36.60;102032.09;4472299;32;33964;-83
2022/03/19 09:02:42;;;;;;;30.98;18.75;;;;;;;10.84;36.53;102025.12;4473381;32;33447;-84
2022/03/19 09:05:10;;;;;;;34.95;19.50;;;;;;;10.72;36.56;102024.47;4472688;32;33535;-83
2022/03/19 09:07:44;;;;;;;31.92;18.23;;;;;;;11.13;35.92;102023.00;4472911;32;33167;-84
2022/03/19 09:10:15;;;;;;;31.27;17.48;;;;;;;11.07;36.21;102025.53;4472549;32;32290;-83
2022/03/19 09:12:55;;;;;;;29.37;18.62;;;;;;;11.17;35.89;102031.81;4460074;32;32814;-83
2022/03/19 09:15:23;;;;;;;37.83;20.42;;;;;;;11.33;36.03;102029.25;4472961;32;33608;-84
2022/03/19 09:17:51;;;;;;;36.70;20.40;;;;;;;11.76;35.39;102022.03;4472118;32;34029;-84
2022/03/19 09:20:19;;;;;;;31.08;17.83;;;;;;;12.19;34.86;102023.94;4469408;32;33580;-85
2022/03/19 09:22:49;;;;;;;31.30;18.20;;;;;;;12.46;33.44;102017.34;4457383;32;35040;-83
2022/03/19 09:25:28;;;;;;;30.17;17.15;;;;;;;12.74;32.84;102026.28;4470212;32;34012;-81
2022/03/19 09:28:05;;;;;;;31.42;17.65;;;;;;;12.60;31.87;102019.50;4470221;32;33317;-82
2022/03/19 09:30:33;;;;;;;29.90;16.55;;;;;;;12.95;31.52;102017.56;4457055;32;32447;-82
2022/03/19 09:33:07;;;;;;;40.72;25.88;;;;;;;12.93;31.95;102020.50;4458043;32;34426;-82
2022/03/19 09:35:47;;;;;;;34.03;18.12;;;;;;;12.83;32.23;102020.63;4459932;32;32454;-82
2022/03/19 09:38:17;;;;;;;32.60;18.00;;;;;;;12.67;32.13;102023.31;4469881;32;34406;-82
2022/03/19 09:40:45;;;;;;;27.95;17.23;;;;;;;12.67;31.69;102015.06;4469739;32;33800;-82
2022/03/19 09:43:13;;;;;;;26.85;16.37;;;;;;;12.71;31.77;102016.44;4457376;32;34048;-82
2022/03/19 09:45:43;;;;;;;36.50;20.33;;;;;;;12.74;32.31;102010.59;4457183;32;33396;-83
2022/03/19 09:48:11;;;;;;;31.08;18.10;;;;;;;12.79;32.76;102016.47;4444056;32;32947;-83
2022/03/19 09:50:41;;;;;;;28.10;17.55;;;;;;;12.72;32.05;102014.56;4458993;32;32525;-84
2022/03/19 09:53:17;;;;;;;24.73;15.88;;;;;;;12.35;32.77;102020.44;4471817;32;35386;-83
2022/03/19 09:55:46;;;;;;;27.17;16.15;;;;;;;12.40;31.48;102018.88;4459490;32;32475;-84
2022/03/19 09:58:15;;;;;;;27.98;16.85;;;;;;;12.36;31.96;102016.63;4472310;32;33568;-83
2022/03/19 10:00:43;;;;;;;27.58;15.90;;;;;;;12.19;32.31;102015.69;4459549;32;32340;-80
2022/03/19 10:03:15;;;;;;;26.23;16.50;;;;;;;12.44;32.32;102017.53;4472127;32;34401;-80
2022/03/19 10:08:36;;;;;;;28.98;16.98;;;;;;;12.72;31.91;102009.91;4485225;32;34212;-80
2022/03/19 10:11:08;;;;;;;27.33;15.48;;;;;;;12.87;31.59;102010.13;4472769;32;34029;-80
2022/03/19 10:13:38;;;;;;;29.02;17.67;;;;;;;12.84;32.23;102011.34;4484962;32;34431;-80
2022/03/19 10:16:07;;;;;;;25.73;16.00;;;;;;;13.15;31.60;102008.81;4472204;32;33489;-79
2022/03/19 10:18:35;;;;;;;27.67;16.05;;;;;;;13.55;30.80;102004.41;4472385;32;33375;-82
2022/03/19 10:21:13;;;;;;;25.25;14.95;;;;;;;13.69;30.75;101994.56;4485090;32;33831;-80
2022/03/19 10:23:42;;;;;;;26.08;16.58;;;;;;;13.76;30.23;101992.84;4472383;32;32740;-79
2022/03/19 10:26:24;;;;;;;86.10;48.87;;;;;;;13.63;30.32;101989.75;4471432;32;32360;-79
2022/03/19 10:29:04;;;;;;;36.28;23.08;;;;;;;13.83;30.59;101996.63;4459056;32;32181;-81
2022/03/19 10:31:44;;;;;;;28.38;16.05;;;;;;;13.77;30.40;101991.81;4485465;32;34559;-81
2022/03/19 10:34:14;;;;;;;23.92;15.30;;;;;;;14.32;29.98;102002.91;4472197;32;33862;-79
2022/03/19 10:36:45;;;;;;;26.12;15.93;;;;;;;14.82;28.41;101986.00;4485216;32;34905;-80
2022/03/19 10:39:21;;;;;;;26.02;16.08;;;;;;;14.99;27.99;101977.56;4486214;32;32981;-81
2022/03/19 10:41:49;;;;;;;;;;;;;;;14.74;28.04;101982.41;4472513;32;32227;-80
2022/03/19 10:44:24;;;;;;;24.35;14.65;;;;;;;15.07;27.39;101975.63;4459267;32;33953;-80
2022/03/19 10:46:58;;;;;;;24.02;15.02;;;;;;;15.17;27.43;101972.63;4459326;32;32333;-81
2022/03/19 10:49:28;;;;;;;23.87;14.70;;;;;;;15.43;26.72;101977.81;4471824;32;31651;-80
2022/03/19 10:52:01;;;;;;;38.55;23.15;;;;;;;15.40;26.87;101975.41;4472149;32;34871;-77
2022/03/19 10:54:30;;;;;;;30.42;19.95;;;;;;;15.71;26.68;101978.09;4486080;32;35211;-85
2022/03/19 10:57:03;;;;;;;24.25;15.95;;;;;;;15.49;26.89;101980.69;4472055;32;34043;-81
2022/03/19 10:59:31;;;;;;;26.42;15.45;;;;;;;15.88;26.47;101973.28;4456707;32;218049;-81
2022/03/19 11:01:59;;;;;;;24.95;16.00;;;;;;;16.04;26.33;101967.56;4470506;32;33998;-80
2022/03/19 11:04:30;;;;;;;23.70;14.85;;;;;;;15.88;26.37;101970.50;4471687;32;34146;-79
2022/03/19 11:06:59;;;;;;;26.50;14.85;;;;;;;15.79;25.73;101958.63;4472082;32;33732;-83
2022/03/19 11:09:28;;;;;;;28.60;16.77;;;;;;;14.92;26.74;101969.19;4458988;32;31738;-82
2022/03/19 11:11:57;;;;;;;24.08;14.80;;;;;;;14.90;26.37;101953.81;4472026;32;32352;-82
2022/03/19 11:14:32;;;;;;;19.90;13.15;;;;;;;14.68;26.33;101949.97;4471719;32;33964;-83
2022/03/19 11:17:32;;;;;;;26.27;15.57;;;;;;;14.97;25.83;101946.47;4472361;32;33964;-80
2022/03/19 11:20:03;;;;;;;22.45;15.57;;;;;;;15.41;25.98;101943.91;4469795;32;31912;-80
2022/03/19 11:22:50;;;;;;;31.62;20.33;;;;;;;15.73;25.01;101937.25;4456561;32;33013;-80
2022/03/19 11:25:27;;;;;;;23.42;14.05;;;;;;;15.43;24.94;101941.81;4456190;32;35271;-79
2022/03/19 11:27:59;;;;;;;29.63;17.80;;;;;;;15.05;25.33;101939.00;4469105;32;32470;-83
2022/03/19 11:30:34;;;;;;;26.42;15.00;;;;;;;15.03;24.01;101935.56;4456203;32;31865;-80
2022/03/19 11:33:08;;;;;;;20.05;13.10;;;;;;;15.35;27.77;101926.16;4456227;32;32533;-81
2022/03/19 11:35:42;;;;;;;20.67;13.62;;;;;;;15.48;23.83;101918.09;4468888;32;34238;-83
2022/03/19 11:38:14;;;;;;;23.90;13.57;;;;;;;15.19;23.43;101911.59;4456237;32;33804;-82
2022/03/19 11:40:45;;;;;;;21.60;13.23;;;;;;;14.95;24.03;101918.19;4456039;32;32836;-84
2022/03/19 11:43:18;;;;;;;26.15;13.07;;;;;;;14.79;24.10;101911.72;4469122;32;33927;-84
2022/03/19 11:46:06;;;;;;;22.48;13.93;;;;;;;15.19;23.48;101908.81;4456036;32;32869;-84
2022/03/19 11:48:45;;;;;;;22.45;13.90;;;;;;;15.45;24.01;101901.84;4443256;32;33195;-83